Colfax, Iowa
Current Conditions -  °F | °C
As of 10:35 AM on Saturday 22 Nov 2014 (Local Time) from KTNU Reporting Station
Overcast Overcast  
Wind Chill: 37°   Ceiling: 600
Heat Index: 45°   Visibility: 8mi
Dew Point: 45°   Wind: 17mph
Humidity: 100%   Direction: 210°SSW
Pressure: 29.86"   Gusts: NA
Location:  41.68°N, 93.25°W
Report Text: KTNU 221635Z AUTO 21015KT 8SM BKN006 BKN010 OVC013 07/07 A2986 RMK AO2
Loading
Personal Weather Stations






























Interactive Weather Map New forecast layout! Learn more

10-Day Weather Forecast

Advertisements
Track Severe Weather on mobile